Portada
METAR-TAF:

METAR-TAF

Aeroports :

Greenville, Alabama, Estats Units d'Amèrica

latitud: 31-50-44N, longitud: 086-36-38W, altitud: 138 m

Observació

L'informe es va fer fa 57 minuts, a les 13:56 UTC
Vent 11 kt del Nord amb ràfegues de 16 kt
Temperatura 13°C
Humitat 54%
Pressió 1015 hPa
Visibilitat: 16.1 km
Cel clar

METAR: KPRN 011356Z AUTO 36011G16KT 10SM CLR 13/04 A2998 RMK AO2 SLP151 T01280039

Hora: 09:53 (14:53 UTC)


TAF: manca

Observacions i pronòstics meteorològics de més de 4000 aeroports (METAR i TAF).

Les estacions disponibles són els punts grocs i vermells al mapa.

Posi el ratolí al punt desitjat per veure el nom de l'estació.

Feu clic per veure les observacions i els pronòstics meteorològics.

Per canviar el mapa: feu clic els botons verds amb una creu de color negre per apropar; al botó verd amb un guió per allunyar la imatge; o en les fletxes verdes per a mapes adjacents.


METAR-TAF: